Time;durP1;ratioP1;P1;durP2;ratioP2;P2;SDS_P1;SDS_P2;PMS_P1;PMS_P2;Temp;Humidity;BMP_temperature;BMP_pressure;BME280_temperature;BME280_humidity;BME280_pressure;Samples;Min_cycle;Max_cycle;Signal;HPM_P1;HPM_P2
2021/06/29 00:01:53;;;;;;;11.80;10.80;;;;;;;23.81;59.74;100818.53;5059795;28;20189;-65
2021/06/29 00:04:18;;;;;;;11.80;10.90;;;;;;;23.74;60.06;100823.25;5061438;28;20462;-64
2021/06/29 00:06:43;;;;;;;11.70;10.80;;;;;;;23.69;59.95;100823.47;5060882;28;20174;-65
2021/06/29 00:09:09;;;;;;;13.40;12.30;;;;;;;23.66;60.57;100820.06;5060890;28;20209;-64
2021/06/29 00:11:34;;;;;;;12.37;11.30;;;;;;;23.57;61.20;100812.47;5061442;28;20231;-65
2021/06/29 00:13:59;;;;;;;12.37;11.47;;;;;;;23.60;61.61;100815.88;5060820;28;20581;-66
2021/06/29 00:16:25;;;;;;;13.20;12.10;;;;;;;23.75;60.65;100819.66;5060680;28;20174;-64
2021/06/29 00:18:50;;;;;;;11.80;10.70;;;;;;;23.35;61.32;100818.72;5061033;28;20240;-64
2021/06/29 00:21:16;;;;;;;12.40;11.40;;;;;;;23.30;62.68;100820.72;5060572;28;20173;-63
2021/06/29 00:23:41;;;;;;;13.00;11.80;;;;;;;23.36;62.34;100823.13;5060320;28;20503;-64
2021/06/29 00:26:08;;;;;;;12.67;11.57;;;;;;;23.14;62.32;100818.72;5057945;28;20305;-64
2021/06/29 00:28:33;;;;;;;15.13;11.53;;;;;;;23.29;61.74;100821.66;5040557;28;20485;-65
2021/06/29 00:30:59;;;;;;;12.90;11.80;;;;;;;23.35;62.32;100821.38;5049720;28;20419;-65
2021/06/29 00:33:24;;;;;;;13.50;12.30;;;;;;;23.42;62.35;100822.88;5060734;28;20499;-65
2021/06/29 00:35:49;;;;;;;12.57;11.53;;;;;;;23.21;61.97;100817.50;5060502;28;20484;-65
2021/06/29 00:38:15;;;;;;;12.63;11.53;;;;;;;23.17;62.07;100820.38;5060246;28;20194;-65
2021/06/29 00:40:40;;;;;;;13.20;12.10;;;;;;;23.22;62.72;100818.41;5060761;28;20176;-65
2021/06/29 00:43:05;;;;;;;13.67;12.57;;;;;;;23.28;62.61;100825.25;5060147;28;20408;-65
2021/06/29 00:45:31;;;;;;;13.80;12.40;;;;;;;23.31;61.54;100827.78;5060269;28;20466;-65
2021/06/29 00:47:56;;;;;;;13.37;12.10;;;;;;;23.14;62.51;100829.34;5060527;28;20539;-65
2021/06/29 00:50:21;;;;;;;13.53;12.43;;;;;;;22.85;63.98;100820.75;5060100;28;20216;-65
2021/06/29 00:52:47;;;;;;;13.50;12.37;;;;;;;23.12;63.25;100828.50;5059822;28;20243;-64
2021/06/29 00:55:13;;;;;;;14.17;12.97;;;;;;;23.14;63.41;100836.47;5051105;28;20193;-66
2021/06/29 00:57:40;;;;;;;14.13;13.03;;;;;;;23.13;62.84;100832.94;5039148;28;20197;-65
2021/06/29 01:00:06;;;;;;;14.20;13.00;;;;;;;23.00;63.89;100821.03;5039709;28;20421;-65
2021/06/29 01:02:32;;;;;;;13.37;12.30;;;;;;;23.23;62.87;100813.94;5040157;28;20448;-64
2021/06/29 01:04:57;;;;;;;14.70;13.50;;;;;;;23.23;63.49;100819.25;5039805;28;20402;-64
2021/06/29 01:07:23;;;;;;;14.10;13.00;;;;;;;23.41;62.59;100820.25;5039790;28;20347;-65
2021/06/29 01:09:48;;;;;;;48.17;41.80;;;;;;;23.21;62.69;100822.84;5040260;28;20584;-65
2021/06/29 01:12:13;;;;;;;32.13;28.87;;;;;;;23.10;63.15;100819.75;5039643;28;20178;-65
2021/06/29 01:14:39;;;;;;;15.73;14.43;;;;;;;23.13;63.51;100814.31;5039803;28;20396;-65
2021/06/29 01:17:05;;;;;;;15.77;14.17;;;;;;;23.02;64.05;100817.38;5039415;28;20272;-65
2021/06/29 01:19:37;;;;;;;21.80;19.77;;;;;;;23.15;63.32;100814.25;5039871;28;20232;-65
2021/06/29 01:22:04;;;;;;;16.40;15.00;;;;;;;23.01;64.01;100809.47;5039508;28;20422;-65
2021/06/29 01:24:31;;;;;;;15.67;14.37;;;;;;;23.05;64.53;100811.09;5042622;28;20468;-65
2021/06/29 01:30:57;;;;;;;16.13;14.73;;;;;;;22.98;64.26;100804.28;5059586;28;20491;-65
2021/06/29 01:32:21;;;;;;;16.43;15.03;;;;;;;23.07;63.20;100809.25;5058971;28;20590;-65
2021/06/29 01:34:47;;;;;;;14.87;13.67;;;;;;;22.89;64.46;100794.88;5059328;28;20869;-65
2021/06/29 01:37:13;;;;;;;13.97;12.90;;;;;;;23.04;64.47;100791.63;5057120;28;20399;-64
2021/06/29 01:39:59;;;;;;;15.03;13.53;;;;;;;22.93;64.79;100791.16;5059216;28;20173;-64
2021/06/29 01:42:25;;;;;;;15.60;14.33;;;;;;;22.98;64.56;100788.34;5059078;28;20192;-65
2021/06/29 01:44:50;;;;;;;16.13;14.60;;;;;;;22.76;64.45;100783.91;5059136;28;20409;-65
2021/06/29 01:47:24;;;;;;;15.60;14.10;;;;;;;22.90;64.50;100780.69;5059110;28;20421;-64
2021/06/29 01:49:50;;;;;;;15.27;14.03;;;;;;;22.92;64.13;100777.94;5059113;28;20205;-65
2021/06/29 01:52:15;;;;;;;15.93;13.87;;;;;;;23.10;63.71;100777.19;5046211;28;20541;-64
2021/06/29 01:54:41;;;;;;;16.30;14.90;;;;;;;23.17;63.40;100770.69;5038910;28;20181;-64
2021/06/29 01:57:06;;;;;;;16.13;14.63;;;;;;;23.23;63.58;100766.91;5021662;28;20201;-64
2021/06/29 01:59:32;;;;;;;15.97;14.67;;;;;;;23.23;63.66;100774.88;5039179;28;20420;-64
2021/06/29 02:01:57;;;;;;;15.60;14.30;;;;;;;23.21;63.88;100774.97;5038645;28;20261;-64
2021/06/29 02:04:24;;;;;;;15.73;14.43;;;;;;;23.00;64.81;100767.84;5038613;28;20529;-65
2021/06/29 02:06:50;;;;;;;14.93;13.73;;;;;;;22.92;65.37;100768.19;5039148;28;20182;-64
2021/06/29 02:09:16;;;;;;;16.43;15.03;;;;;;;22.81;65.62;100766.00;5047092;28;20476;-64
2021/06/29 02:11:41;;;;;;;13.77;12.57;;;;;;;22.91;65.19;100765.56;5048219;28;20522;-64
2021/06/29 02:14:07;;;;;;;15.00;13.80;;;;;;;23.10;64.30;100773.69;5041774;28;20441;-64
2021/06/29 02:16:33;;;;;;;14.50;13.33;;;;;;;23.09;64.67;100764.81;5057133;28;20173;-64
2021/06/29 02:18:58;;;;;;;15.23;13.93;;;;;;;22.73;66.01;100765.41;5056963;28;20233;-64
2021/06/29 02:21:24;;;;;;;16.73;15.33;;;;;;;23.13;64.40;100765.59;5038432;28;20594;-65
2021/06/29 02:23:49;;;;;;;26.70;23.77;;;;;;;22.90;65.66;100763.88;5038021;28;20235;-65
2021/06/29 02:26:15;;;;;;;15.07;13.67;;;;;;;22.70;66.04;100762.88;5044073;28;20184;-65
2021/06/29 02:28:40;;;;;;;46.80;40.70;;;;;;;22.91;66.16;100763.81;5058736;28;20283;-65
2021/06/29 02:31:05;;;;;;;28.07;25.00;;;;;;;22.78;66.81;100755.47;5058128;28;20173;-65
2021/06/29 02:33:31;;;;;;;17.90;16.30;;;;;;;22.93;65.55;100761.06;5058290;28;20179;-65
2021/06/29 02:35:56;;;;;;;19.70;17.90;;;;;;;22.66;66.25;100766.59;5053530;28;20177;-65
2021/06/29 02:38:25;;;;;;;26.20;23.60;;;;;;;22.97;65.97;100758.22;5038241;28;20261;-64
2021/06/29 02:40:51;;;;;;;17.87;16.23;;;;;;;22.80;66.08;100763.38;5037973;28;20224;-64
2021/06/29 02:43:16;;;;;;;16.87;15.47;;;;;;;22.60;66.81;100757.09;5038389;28;20405;-64
2021/06/29 02:45:42;;;;;;;15.53;14.33;;;;;;;22.61;66.21;100756.16;5042531;28;20193;-65
2021/06/29 02:48:09;;;;;;;16.67;15.27;;;;;;;22.68;66.34;100751.47;5037913;28;20209;-64
2021/06/29 02:50:34;;;;;;;16.23;14.83;;;;;;;22.83;65.77;100747.31;5038323;28;20504;-65
2021/06/29 02:52:59;;;;;;;16.77;15.37;;;;;;;22.96;65.42;100742.34;5037840;28;20771;-64
2021/06/29 02:55:25;;;;;;;20.50;18.60;;;;;;;22.87;66.22;100744.44;5038070;28;20178;-65
2021/06/29 02:57:50;;;;;;;17.63;16.23;;;;;;;22.84;66.29;100744.59;5055735;28;20172;-65
2021/06/29 03:00:20;;;;;;;16.80;15.30;;;;;;;22.60;66.41;100743.78;5059309;28;20192;-65
2021/06/29 03:02:46;;;;;;;17.47;15.97;;;;;;;22.54;66.81;100741.38;5057628;28;20192;-64
2021/06/29 03:05:12;;;;;;;43.47;37.33;;;;;;;22.64;66.21;100739.22;5058006;28;20404;-65
2021/06/29 03:07:37;;;;;;;31.60;28.30;;;;;;;22.58;66.71;100737.66;5053944;28;20467;-65
2021/06/29 03:10:05;;;;;;;18.83;17.27;;;;;;;22.25;68.43;100739.88;5057653;28;20448;-64
2021/06/29 03:12:30;;;;;;;17.57;15.90;;;;;;;22.41;68.46;100733.06;5058030;28;20219;-65
2021/06/29 03:14:59;;;;;;;17.73;16.33;;;;;;;22.43;67.87;100740.97;5051627;28;20841;-65
2021/06/29 03:17:25;;;;;;;17.20;15.70;;;;;;;22.41;68.33;100737.47;5038623;28;20239;-64
2021/06/29 03:19:50;;;;;;;16.80;15.47;;;;;;;22.44;68.28;100730.25;5039487;28;20409;-64
2021/06/29 03:22:16;;;;;;;17.60;16.10;;;;;;;22.64;67.41;100737.44;5041507;28;20174;-65
2021/06/29 03:24:41;;;;;;;16.73;15.23;;;;;;;22.74;66.81;100737.91;5042005;28;20233;-64
2021/06/29 03:27:08;;;;;;;17.80;16.20;;;;;;;22.79;66.86;100735.94;5042904;28;20434;-64
2021/06/29 03:29:34;;;;;;;16.60;15.20;;;;;;;23.02;66.14;100742.94;5043708;28;20213;-65
2021/06/29 03:31:59;;;;;;;15.93;14.63;;;;;;;22.92;66.13;100741.63;5041536;28;20399;-65
2021/06/29 03:34:24;;;;;;;18.00;16.60;;;;;;;23.19;65.13;100749.34;5041783;28;20436;-65
2021/06/29 03:36:50;;;;;;;14.97;13.70;;;;;;;23.05;64.75;100753.44;5042967;28;20181;-64
2021/06/29 03:39:15;;;;;;;17.30;15.90;;;;;;;23.14;63.03;100765.53;5042972;28;20446;-64
2021/06/29 03:41:40;;;;;;;15.20;14.00;;;;;;;23.01;64.79;100764.28;5041717;28;20193;-65
2021/06/29 03:44:06;;;;;;;14.80;13.60;;;;;;;23.23;63.13;100771.38;5041169;28;20190;-64
2021/06/29 03:46:32;;;;;;;14.47;13.17;;;;;;;23.35;62.21;100771.72;5042676;28;20186;-64
2021/06/29 03:48:57;;;;;;;13.10;11.83;;;;;;;23.35;61.63;100770.84;5042703;28;20226;-65
2021/06/29 03:51:22;;;;;;;13.37;12.37;;;;;;;23.73;60.56;100768.28;5041228;28;20213;-65
2021/06/29 03:53:48;;;;;;;13.37;12.20;;;;;;;23.90;60.46;100769.38;5041263;28;20200;-64
2021/06/29 03:56:29;;;;;;;13.93;12.80;;;;;;;23.56;62.01;100774.38;5041563;28;20496;-64
2021/06/29 03:58:57;;;;;;;15.17;13.90;;;;;;;23.20;63.88;100778.56;5041224;28;20181;-65
2021/06/29 04:01:23;;;;;;;15.87;14.43;;;;;;;23.14;65.16;100775.31;5044256;28;20533;-64
2021/06/29 04:03:54;;;;;;;14.83;13.60;;;;;;;23.26;64.61;100772.13;5041083;28;20515;-65
2021/06/29 04:06:19;;;;;;;16.73;13.87;;;;;;;23.25;65.39;100770.38;5043572;28;20236;-65
2021/06/29 04:08:44;;;;;;;15.90;14.50;;;;;;;23.13;65.60;100770.91;5041566;28;20753;-65
2021/06/29 04:11:09;;;;;;;15.60;13.63;;;;;;;23.48;64.47;100771.19;5040723;28;20178;-66
2021/06/29 04:13:35;;;;;;;15.13;13.63;;;;;;;23.21;64.19;100774.97;5049642;28;20189;-65
2021/06/29 04:16:00;;;;;;;14.40;13.20;;;;;;;23.41;62.40;100781.22;5061070;28;20496;-66
2021/06/29 04:18:25;;;;;;;14.73;13.23;;;;;;;23.37;62.29;100777.84;5060712;28;20193;-64
2021/06/29 04:20:51;;;;;;;14.80;13.60;;;;;;;23.58;61.22;100776.97;5057476;28;20182;-64
2021/06/29 04:23:16;;;;;;;14.13;12.83;;;;;;;23.64;60.64;100779.38;5060576;28;20531;-65
2021/06/29 04:25:41;;;;;;;13.33;12.13;;;;;;;23.70;60.04;100777.25;5060563;28;20242;-66
2021/06/29 04:28:06;;;;;;;12.57;11.67;;;;;;;23.88;59.95;100780.94;5059559;28;20213;-66
2021/06/29 04:30:32;;;;;;;12.50;11.50;;;;;;;23.67;60.08;100784.53;5060656;28;20224;-66
2021/06/29 04:32:57;;;;;;;11.77;10.87;;;;;;;23.84;59.71;100776.66;5044503;28;20290;-65
2021/06/29 04:35:23;;;;;;;12.00;11.10;;;;;;;24.33;58.22;100780.69;5040584;28;20186;-65
2021/06/29 04:37:48;;;;;;;11.23;10.23;;;;;;;24.06;58.78;100770.38;5040567;28;20255;-65
2021/06/29 04:40:14;;;;;;;11.80;10.80;;;;;;;24.74;56.76;100767.19;5040592;28;20178;-66
2021/06/29 04:42:39;;;;;;;11.60;10.67;;;;;;;24.04;59.09;100756.25;5040750;28;20200;-65
2021/06/29 04:45:05;;;;;;;11.93;10.90;;;;;;;24.09;59.09;100751.59;5040835;28;20154;-65
2021/06/29 04:47:36;;;;;;;12.60;11.67;;;;;;;24.72;56.70;100758.38;5040129;28;20227;-64
2021/06/29 04:50:05;;;;;;;12.57;11.50;;;;;;;24.49;57.50;100757.69;5056808;28;20567;-65
2021/06/29 04:52:30;;;;;;;12.00;10.97;;;;;;;24.66;57.14;100751.56;5041705;28;20452;-66
2021/06/29 04:54:55;;;;;;;11.93;10.93;;;;;;;24.65;56.85;100756.97;5040104;28;20413;-66
2021/06/29 04:57:21;;;;;;;12.30;11.13;;;;;;;24.89;56.46;100752.22;5052719;28;20458;-66
2021/06/29 04:59:46;;;;;;;12.07;11.07;;;;;;;25.07;56.20;100758.41;5059943;28;20253;-65
2021/06/29 05:02:11;;;;;;;11.53;10.53;;;;;;;24.88;57.34;100767.38;5057817;28;20533;-65
2021/06/29 05:04:37;;;;;;;13.30;12.30;;;;;;;24.80;56.96;100772.22;5058065;28;20182;-65
2021/06/29 05:07:02;;;;;;;19.93;17.93;;;;;;;24.54;58.07;100777.00;5059856;28;20180;-65
2021/06/29 05:09:27;;;;;;;13.57;12.17;;;;;;;24.73;58.38;100769.94;5059895;28;20205;-65
2021/06/29 05:11:53;;;;;;;15.50;14.20;;;;;;;24.75;57.96;100766.25;5059304;28;20184;-64
2021/06/29 05:14:18;;;;;;;14.07;12.73;;;;;;;24.74;57.86;100763.66;5045071;28;20221;-65
2021/06/29 05:16:43;;;;;;;13.87;12.60;;;;;;;24.88;57.57;100769.16;5039411;28;20179;-65
2021/06/29 05:19:08;;;;;;;12.73;11.47;;;;;;;24.48;58.00;100752.44;5042950;28;20189;-65
2021/06/29 05:21:34;;;;;;;12.30;11.07;;;;;;;24.49;57.28;100760.34;5059653;28;20185;-65
2021/06/29 05:23:59;;;;;;;12.30;11.10;;;;;;;24.91;56.19;100766.34;5055941;28;20233;-65
2021/06/29 05:26:25;;;;;;;12.00;10.23;;;;;;;24.67;56.82;100771.94;5049313;28;20205;-65
2021/06/29 05:28:50;;;;;;;10.87;9.97;;;;;;;24.75;56.64;100771.56;5056391;28;20262;-65
2021/06/29 05:31:15;;;;;;;11.17;10.33;;;;;;;24.73;56.35;100772.59;5054020;28;20178;-64
2021/06/29 05:33:41;;;;;;;10.60;9.70;;;;;;;24.96;55.93;100785.63;5044057;28;20438;-65
2021/06/29 05:36:08;;;;;;;9.80;9.00;;;;;;;24.98;55.63;100774.91;5070040;28;20589;-65
2021/06/29 05:38:33;;;;;;;10.37;9.40;;;;;;;25.59;53.49;100778.03;5059218;28;20182;-65
2021/06/29 05:40:58;;;;;;;9.77;8.80;;;;;;;25.89;52.81;100773.72;5075282;28;20453;-64
2021/06/29 05:43:24;;;;;;;17.10;15.70;;;;;;;26.38;51.44;100767.53;5073606;28;20189;-64
2021/06/29 05:45:49;;;;;;;9.97;8.97;;;;;;;26.26;52.16;100784.22;5041717;28;20182;-64
2021/06/29 05:48:17;;;;;;;9.23;8.53;;;;;;;25.86;51.77;100779.25;5039028;28;20209;-65
2021/06/29 05:50:43;;;;;;;8.30;7.60;;;;;;;25.94;51.79;100785.97;5043383;28;20544;-64
2021/06/29 05:53:08;;;;;;;7.97;7.37;;;;;;;26.14;50.78;100780.44;5052531;28;20450;-64
2021/06/29 05:55:33;;;;;;;7.70;7.10;;;;;;;26.39;50.38;100776.41;5043152;28;20193;-65
2021/06/29 05:57:58;;;;;;;8.17;7.40;;;;;;;27.28;47.20;100775.75;5038991;28;20289;-65
2021/06/29 06:00:24;;;;;;;7.37;6.77;;;;;;;28.30;44.85;100772.16;5038609;28;20182;-65
2021/06/29 06:02:49;;;;;;;8.63;7.93;;;;;;;27.63;46.46;100774.56;5039308;28;20795;-64
2021/06/29 06:05:15;;;;;;;7.47;6.83;;;;;;;27.03;48.10;100773.66;5045114;28;20192;-65
2021/06/29 06:07:40;;;;;;;7.63;7.03;;;;;;;26.01;50.14;100779.38;5048763;28;20182;-65
2021/06/29 06:10:07;;;;;;;8.03;7.40;;;;;;;26.36;50.21;100777.44;5042315;28;20472;-65
2021/06/29 06:12:33;;;;;;;7.73;7.00;;;;;;;25.54;51.92;100787.16;5040174;28;20178;-65
2021/06/29 06:14:58;;;;;;;7.17;6.63;;;;;;;25.68;51.72;100777.56;5057246;28;20411;-65
2021/06/29 06:17:26;;;;;;;8.10;7.40;;;;;;;25.43;52.43;100778.84;5065727;28;20185;-65
2021/06/29 06:19:52;;;;;;;8.23;7.63;;;;;;;25.53;52.24;100787.22;5078434;28;20424;-65
2021/06/29 06:22:18;;;;;;;7.93;7.23;;;;;;;25.81;51.43;100781.28;5055055;28;20439;-65
2021/06/29 06:24:43;;;;;;;8.80;8.00;;;;;;;25.64;51.97;100784.00;5058336;28;20229;-65
2021/06/29 06:27:12;;;;;;;8.27;7.67;;;;;;;26.00;51.07;100780.31;5050844;28;20182;-65
2021/06/29 06:29:37;;;;;;;8.00;7.40;;;;;;;26.00;51.38;100774.97;5056456;28;20573;-65
2021/06/29 06:32:18;;;;;;;7.67;7.07;;;;;;;26.34;50.37;100759.75;5025288;28;20452;-67
2021/06/29 06:34:43;;;;;;;8.63;7.70;;;;;;;27.30;48.14;100759.59;5042347;28;20437;-64
2021/06/29 06:37:08;;;;;;;8.03;7.23;;;;;;;27.70;46.86;100757.19;5051775;28;20174;-65
2021/06/29 06:39:34;;;;;;;8.33;7.53;;;;;;;29.00;43.87;100759.59;5057824;28;20174;-64
2021/06/29 06:41:59;;;;;;;25.33;12.17;;;;;;;29.49;42.98;100756.22;5050845;28;20315;-63
2021/06/29 06:44:24;;;;;;;8.63;7.93;;;;;;;28.95;43.36;100759.03;5037707;28;20174;-63
2021/06/29 06:46:50;;;;;;;8.23;7.63;;;;;;;27.44;46.88;100762.34;5037956;28;20440;-65
2021/06/29 06:49:15;;;;;;;8.27;7.57;;;;;;;26.90;48.55;100762.84;5039271;28;20229;-65
2021/06/29 06:51:41;;;;;;;9.60;7.20;;;;;;;26.84;49.20;100763.19;5039133;28;20205;-67
2021/06/29 06:54:06;;;;;;;9.60;8.90;;;;;;;26.51;49.71;100758.81;5044926;28;20185;-69
2021/06/29 06:56:31;;;;;;;9.37;8.40;;;;;;;25.97;51.50;100767.13;5050120;28;20189;-66
2021/06/29 06:58:57;;;;;;;9.60;8.77;;;;;;;26.52;50.24;100760.50;5047143;28;20200;-66
2021/06/29 07:01:22;;;;;;;9.67;8.70;;;;;;;26.67;49.88;100762.31;5047586;28;20291;-67
2021/06/29 07:03:47;;;;;;;9.57;8.87;;;;;;;27.09;48.76;100759.06;5049808;28;20184;-67
2021/06/29 07:06:14;;;;;;;10.60;9.80;;;;;;;27.66;47.03;100761.00;5045759;28;20218;-66
2021/06/29 07:08:39;;;;;;;10.10;8.03;;;;;;;28.28;46.77;100765.19;5040627;28;20611;-68
2021/06/29 07:11:06;;;;;;;9.80;8.90;;;;;;;28.26;45.85;100767.13;5044359;28;20479;-68
2021/06/29 07:13:31;;;;;;;9.83;9.03;;;;;;;27.95;47.24;100767.19;5040157;28;20229;-67
2021/06/29 07:15:57;;;;;;;9.03;8.30;;;;;;;28.13;46.55;100759.88;5054419;28;20481;-67
2021/06/29 07:18:22;;;;;;;8.60;7.90;;;;;;;28.08;47.07;100770.00;5049326;28;20186;-67
2021/06/29 07:20:48;;;;;;;9.67;8.73;;;;;;;28.30;46.17;100760.59;5037871;28;20228;-67
2021/06/29 07:23:14;;;;;;;9.03;8.30;;;;;;;27.99;46.83;100765.19;5037946;28;20193;-67
2021/06/29 07:25:41;;;;;;;8.80;8.00;;;;;;;28.40;45.92;100761.69;5036912;28;20509;-67
2021/06/29 07:28:08;;;;;;;8.87;7.97;;;;;;;29.05;44.71;100757.44;5038692;28;20178;-67
2021/06/29 07:30:34;;;;;;;8.63;7.80;;;;;;;28.65;45.12;100765.50;5041019;28;20444;-67
2021/06/29 07:32:59;;;;;;;8.00;7.40;;;;;;;28.43;46.93;100753.47;5042760;28;20456;-68
2021/06/29 07:35:27;;;;;;;8.90;8.10;;;;;;;28.84;45.67;100765.97;5044895;28;20845;-67
2021/06/29 07:37:53;;;;;;;8.90;8.20;;;;;;;28.13;47.05;100757.19;5046811;28;20194;-67
2021/06/29 07:40:18;;;;;;;9.30;8.40;;;;;;;27.85;48.36;100766.09;5037346;28;20841;-67
2021/06/29 07:42:43;;;;;;;8.80;8.03;;;;;;;27.86;48.18;100767.78;5038904;28;20508;-67
2021/06/29 07:45:10;;;;;;;9.27;8.33;;;;;;;26.93;49.82;100777.81;5039169;28;20181;-66
2021/06/29 07:47:35;;;;;;;9.83;8.93;;;;;;;27.75;49.27;100763.09;5037245;28;20231;-66
2021/06/29 07:50:01;;;;;;;10.23;8.30;;;;;;;28.68;46.91;100770.66;5037406;28;20452;-67
2021/06/29 07:52:26;;;;;;;9.47;8.70;;;;;;;29.03;45.19;100759.38;5037140;28;20181;-67
2021/06/29 07:54:51;;;;;;;9.00;8.30;;;;;;;30.35;42.20;100746.53;5035062;28;20232;-66
2021/06/29 07:57:17;;;;;;;8.37;7.70;;;;;;;31.69;40.11;100745.41;5036577;28;20177;-67
2021/06/29 07:59:42;;;;;;;7.87;7.37;;;;;;;32.68;38.35;100748.22;5036910;28;20236;-67
2021/06/29 08:02:08;;;;;;;7.63;7.03;;;;;;;33.16;36.44;100741.47;5040332;28;20258;-68
2021/06/29 08:04:33;;;;;;;8.00;7.30;;;;;;;33.95;34.87;100737.34;5050322;28;20205;-67
2021/06/29 08:06:59;;;;;;;7.57;6.87;;;;;;;33.50;36.68;100752.09;5076797;28;20204;-67
2021/06/29 08:09:24;;;;;;;7.93;6.90;;;;;;;32.68;37.01;100748.22;5059689;28;20206;-67
2021/06/29 08:11:49;;;;;;;9.03;7.40;;;;;;;32.45;37.94;100744.72;5039986;28;20274;-68
2021/06/29 08:14:15;;;;;;;8.87;8.07;;;;;;;31.75;38.63;100747.63;5047415;28;20611;-68
2021/06/29 08:16:43;;;;;;;8.10;7.50;;;;;;;32.75;37.77;100746.75;5040420;28;20170;-68
2021/06/29 08:19:09;;;;;;;7.97;7.47;;;;;;;31.93;39.06;100752.53;5040560;28;20235;-68
2021/06/29 08:21:34;;;;;;;8.70;8.10;;;;;;;30.77;41.64;100748.84;5046274;28;20710;-68
2021/06/29 08:23:59;;;;;;;9.40;8.60;;;;;;;31.35;40.85;100748.94;5044972;28;20228;-68
2021/06/29 08:26:25;;;;;;;9.10;8.40;;;;;;;30.29;42.70;100735.38;5043935;28;20182;-68
2021/06/29 08:28:50;;;;;;;9.73;8.73;;;;;;;30.17;42.68;100746.03;5045947;28;20505;-68
2021/06/29 08:31:19;;;;;;;10.63;9.70;;;;;;;29.30;44.80;100753.97;5046490;28;20174;-68
2021/06/29 08:33:45;;;;;;;11.00;10.20;;;;;;;29.23;44.68;100755.34;5047992;28;20182;-67
2021/06/29 08:36:10;;;;;;;10.10;9.20;;;;;;;29.51;44.60;100756.13;5058789;28;20694;-68
2021/06/29 08:38:35;;;;;;;8.70;8.00;;;;;;;29.42;44.50;100756.75;5058766;28;20258;-67
2021/06/29 08:41:01;;;;;;;10.10;9.10;;;;;;;29.79;44.55;100752.34;5054121;28;20178;-66
2021/06/29 08:43:26;;;;;;;8.83;8.13;;;;;;;29.82;44.52;100756.63;5043575;28;20189;-66
2021/06/29 08:45:51;;;;;;;9.63;8.73;;;;;;;28.62;47.35;100763.84;5045349;28;20480;-66
2021/06/29 08:48:19;;;;;;;10.00;9.20;;;;;;;28.60;47.07;100759.53;5040067;28;20583;-66
2021/06/29 08:50:44;;;;;;;10.53;9.60;;;;;;;28.47;47.04;100755.00;5040033;28;20204;-66
2021/06/29 08:53:11;;;;;;;10.30;9.43;;;;;;;27.60;48.82;100753.34;5043303;28;20467;-66
2021/06/29 08:55:44;;;;;;;9.30;8.60;;;;;;;27.25;49.39;100751.81;5056344;28;20176;-65
2021/06/29 08:58:10;;;;;;;10.90;9.90;;;;;;;27.32;49.73;100753.19;5042668;28;20503;-66
2021/06/29 09:00:37;;;;;;;9.87;9.07;;;;;;;27.03;50.37;100738.88;5042219;28;20456;-65
2021/06/29 09:03:04;;;;;;;10.07;9.27;;;;;;;26.94;50.50;100742.09;5043194;28;20526;-64
2021/06/29 09:05:29;;;;;;;9.30;8.60;;;;;;;26.83;50.82;100743.63;5053179;28;20574;-64
2021/06/29 09:08:00;;;;;;;10.77;9.57;;;;;;;26.84;51.20;100747.97;5048253;28;20785;-65
2021/06/29 09:10:25;;;;;;;13.40;11.33;;;;;;;26.58;52.33;100749.47;5057958;28;20412;-64
2021/06/29 09:12:51;;;;;;;11.80;10.97;;;;;;;26.49;52.53;100750.84;5047102;28;20463;-64
2021/06/29 09:15:40;;;;;;;10.60;9.80;;;;;;;26.38;53.20;100756.84;5041916;28;20185;-64
2021/06/29 09:18:05;;;;;;;10.27;9.47;;;;;;;26.47;52.23;100751.91;5041036;28;20472;-65
2021/06/29 09:20:46;;;;;;;11.00;10.17;;;;;;;26.51;52.59;100754.31;5039114;28;20444;-65
2021/06/29 09:23:18;;;;;;;11.50;10.60;;;;;;;26.54;52.69;100758.63;5039282;28;20166;-65
2021/06/29 09:25:50;;;;;;;11.90;10.83;;;;;;;26.25;54.05;100765.63;5042546;28;20440;-65
2021/06/29 09:28:20;;;;;;;11.43;10.53;;;;;;;26.79;52.08;100752.78;5043031;28;20508;-64
2021/06/29 09:30:47;;;;;;;11.80;10.73;;;;;;;27.22;51.03;100758.25;5042960;28;20444;-64
2021/06/29 09:33:21;;;;;;;11.20;10.10;;;;;;;28.05;48.29;100751.47;5050252;28;20444;-65
2021/06/29 09:35:52;;;;;;;11.47;10.47;;;;;;;28.03;48.83;100753.34;5052709;28;20440;-64
2021/06/29 09:38:23;;;;;;;10.70;9.80;;;;;;;27.90;48.41;100745.19;5058174;28;20410;-65
2021/06/29 09:40:59;;;;;;;10.70;9.80;;;;;;;28.24;47.57;100751.13;5040129;28;20437;-65
2021/06/29 09:43:27;;;;;;;10.20;9.50;;;;;;;28.33;47.25;100746.97;5040538;28;20440;-64
2021/06/29 09:45:55;;;;;;;9.63;8.90;;;;;;;28.09;47.33;100750.31;5049852;28;21059;-65
2021/06/29 09:48:35;;;;;;;10.67;9.60;;;;;;;28.65;46.57;100760.13;5041916;28;20886;-65
2021/06/29 09:51:07;;;;;;;10.77;9.87;;;;;;;28.28;48.23;100757.13;5038571;28;20547;-63
2021/06/29 09:53:35;;;;;;;10.87;9.53;;;;;;;28.68;46.20;100755.41;5038284;28;20846;-63
2021/06/29 09:56:03;;;;;;;9.67;8.97;;;;;;;26.75;50.52;100761.03;5041273;28;20718;-63
2021/06/29 09:58:31;;;;;;;9.30;8.40;;;;;;;27.61;48.26;100745.22;5058413;28;20408;-62
2021/06/29 10:00:59;;;;;;;9.10;8.40;;;;;;;27.55;48.12;100757.16;5052143;28;20482;-62
2021/06/29 10:03:26;;;;;;;9.87;8.23;;;;;;;27.70;48.16;100763.38;5038652;28;20424;-63
2021/06/29 10:05:56;;;;;;;8.47;7.87;;;;;;;27.92;47.25;100766.56;5055535;28;20433;-63
2021/06/29 10:08:33;;;;;;;9.80;8.43;;;;;;;27.53;48.35;100761.75;5040962;28;20715;-62
2021/06/29 10:11:10;;;;;;;8.80;7.93;;;;;;;27.41;48.76;100761.66;5039909;28;20438;-62
2021/06/29 10:13:37;;;;;;;9.80;8.80;;;;;;;27.52;48.25;100762.72;5038192;28;20704;-62
2021/06/29 10:16:04;;;;;;;10.07;8.70;;;;;;;27.63;47.55;100762.06;5038280;28;20420;-62
2021/06/29 10:18:32;;;;;;;8.63;7.93;;;;;;;27.19;47.98;100758.41;5037926;28;20741;-62
2021/06/29 10:21:00;;;;;;;11.13;7.77;;;;;;;27.18;48.89;100767.41;5037643;28;20753;-63
2021/06/29 10:23:26;;;;;;;9.80;7.93;;;;;;;26.99;49.28;100758.75;5038021;28;20499;-62
2021/06/29 10:25:52;;;;;;;7.93;7.33;;;;;;;27.07;49.14;100759.16;5020673;28;20435;-63
2021/06/29 10:28:18;;;;;;;8.40;7.80;;;;;;;26.92;49.76;100760.91;5037596;28;20465;-62
2021/06/29 10:30:45;;;;;;;8.00;7.30;;;;;;;27.46;48.17;100759.56;5042892;28;20444;-63
2021/06/29 10:33:11;;;;;;;9.17;7.10;;;;;;;27.64;47.49;100757.56;5042412;28;20224;-64
2021/06/29 10:35:37;;;;;;;10.00;7.27;;;;;;;27.33;47.85;100751.38;5038318;28;20803;-65
2021/06/29 10:38:02;;;;;;;7.70;7.10;;;;;;;27.90;47.45;100739.84;5037951;28;20471;-64
2021/06/29 10:40:28;;;;;;;12.40;8.27;;;;;;;27.65;49.92;100740.53;5039325;28;20503;-63
2021/06/29 10:42:58;;;;;;;8.43;7.73;;;;;;;26.89;51.51;100735.22;5040029;28;20182;-64
2021/06/29 10:45:23;;;;;;;7.63;7.03;;;;;;;26.71;51.87;100733.59;5044294;28;20178;-63
2021/06/29 10:47:48;;;;;;;9.53;8.67;;;;;;;26.81;53.46;100729.44;5048034;28;20830;-63
2021/06/29 10:50:14;;;;;;;9.17;8.33;;;;;;;27.35;51.25;100722.69;5038714;28;20214;-62
2021/06/29 10:52:42;;;;;;;9.90;8.30;;;;;;;27.09;51.48;100722.47;5044006;28;20225;-64
2021/06/29 10:55:28;;;;;;;9.53;8.90;;;;;;;26.59;54.11;100718.25;5042240;28;20468;-64
2021/06/29 10:57:55;;;;;;;9.30;8.40;;;;;;;27.08;52.90;100710.03;5039334;28;20440;-64
2021/06/29 11:00:20;;;;;;;9.70;8.90;;;;;;;26.93;54.25;100714.50;5037744;28;20847;-64
2021/06/29 11:03:00;;;;;;;9.20;8.30;;;;;;;27.97;49.12;100710.81;5039127;28;20516;-64
2021/06/29 11:05:28;;;;;;;10.10;9.23;;;;;;;27.41;50.25;100703.59;5045360;28;20176;-64
2021/06/29 11:08:20;;;;;;;11.63;10.63;;;;;;;27.35;53.68;100712.00;5037873;28;20440;-65
2021/06/29 11:10:48;;;;;;;10.20;9.20;;;;;;;27.08;54.40;100711.88;5039465;28;20433;-63
2021/06/29 11:13:15;;;;;;;10.60;9.60;;;;;;;27.36;51.93;100711.00;5046372;28;20518;-63
2021/06/29 11:15:44;;;;;;;10.07;9.30;;;;;;;27.31;52.58;100718.50;5040744;28;20421;-63
2021/06/29 11:18:11;;;;;;;11.47;10.47;;;;;;;27.01;56.72;100711.38;5041549;28;20416;-65